createdAt,value
2018-05-11T00:00:18.717Z,1010.85
2018-05-11T00:01:18.720Z,1010.88
2018-05-11T00:02:18.721Z,1010.88
2018-05-11T00:03:18.719Z,1010.87
2018-05-11T00:04:18.719Z,1010.87
2018-05-11T00:05:18.717Z,1010.89
2018-05-11T00:06:18.723Z,1010.94
2018-05-11T00:07:18.717Z,1010.95
2018-05-11T00:08:18.718Z,1010.97
2018-05-11T00:09:18.717Z,1010.96
2018-05-11T00:10:18.720Z,1010.98
2018-05-11T00:11:18.716Z,1011.02
2018-05-11T00:12:18.717Z,1011.07
2018-05-11T00:13:18.715Z,1011.07
2018-05-11T00:14:18.718Z,1011.12
2018-05-11T00:15:18.720Z,1011.13
2018-05-11T00:16:18.716Z,1011.18
2018-05-11T00:17:18.713Z,1011.20
2018-05-11T00:18:18.718Z,1011.25
2018-05-11T00:19:18.714Z,1011.26
2018-05-11T00:20:18.713Z,1011.25
2018-05-11T00:21:18.712Z,1011.33
2018-05-11T00:22:18.716Z,1011.30
2018-05-11T00:23:18.727Z,1011.36
2018-05-11T00:24:18.711Z,1011.39
2018-05-11T00:25:18.710Z,1011.41
2018-05-11T00:26:18.709Z,1011.41
2018-05-11T00:27:18.713Z,1011.41
2018-05-11T00:28:18.707Z,1011.40
2018-05-11T00:29:18.708Z,1011.41
2018-05-11T00:30:18.707Z,1011.43
2018-05-11T00:31:18.706Z,1011.45
2018-05-11T00:32:18.706Z,1011.43
2018-05-11T00:33:18.706Z,1011.44
2018-05-11T00:34:18.708Z,1011.49
2018-05-11T00:35:18.704Z,1011.41
2018-05-11T00:36:18.707Z,1011.46
2018-05-11T00:37:18.707Z,1011.51
2018-05-11T00:38:18.703Z,1011.56
2018-05-11T00:39:18.702Z,1011.59
2018-05-11T00:40:18.701Z,1011.59
2018-05-11T00:41:18.701Z,1011.59
2018-05-11T00:42:18.706Z,1011.64
2018-05-11T00:43:18.705Z,1011.68
2018-05-11T00:44:18.701Z,1011.65
2018-05-11T00:45:18.700Z,1011.66
2018-05-11T00:46:18.699Z,1011.68
2018-05-11T00:47:18.699Z,1011.69
2018-05-11T00:48:18.699Z,1011.61
2018-05-11T00:49:18.696Z,1011.61
2018-05-11T00:50:18.699Z,1011.64
2018-05-11T00:51:18.698Z,1011.65
2018-05-11T00:52:18.694Z,1011.64
2018-05-11T00:53:18.695Z,1011.63
2018-05-11T00:54:18.695Z,1011.73
2018-05-11T00:55:18.692Z,1011.73
2018-05-11T00:56:18.692Z,1011.72
2018-05-11T00:57:18.694Z,1011.73
2018-05-11T00:58:18.693Z,1011.81
2018-05-11T00:59:18.690Z,1011.80
2018-05-11T01:00:18.691Z,1011.85
2018-05-11T01:01:18.686Z,1011.85
2018-05-11T01:02:18.687Z,1011.86
2018-05-11T01:03:18.693Z,1011.87
2018-05-11T01:04:18.685Z,1011.93
2018-05-11T01:05:18.686Z,1011.93
2018-05-11T01:06:18.684Z,1011.95
2018-05-11T01:07:18.682Z,1012.01
2018-05-11T01:08:18.683Z,1011.98
2018-05-11T01:09:18.687Z,1012.04
2018-05-11T01:10:18.682Z,1012.09
2018-05-11T01:11:18.679Z,1012.07
2018-05-11T01:12:18.682Z,1012.10
2018-05-11T01:13:18.678Z,1012.12
2018-05-11T01:14:18.677Z,1012.10
2018-05-11T01:15:18.679Z,1012.13
2018-05-11T01:16:18.682Z,1012.20
2018-05-11T01:17:18.675Z,1012.22
2018-05-11T01:18:18.675Z,1012.24
2018-05-11T01:19:18.669Z,1012.25
2018-05-11T01:20:18.673Z,1012.29
2018-05-11T01:21:18.674Z,1012.25
2018-05-11T01:22:18.671Z,1012.26
2018-05-11T01:23:18.667Z,1012.29
2018-05-11T01:24:18.668Z,1012.31
2018-05-11T01:25:18.667Z,1012.33
2018-05-11T01:26:18.666Z,1012.34
2018-05-11T01:27:18.664Z,1012.35
2018-05-11T01:28:18.668Z,1012.38
2018-05-11T01:29:18.661Z,1012.40
2018-05-11T01:30:18.666Z,1012.36
2018-05-11T01:31:18.661Z,1012.38
2018-05-11T01:32:18.659Z,1012.38
2018-05-11T01:33:18.658Z,1012.40
2018-05-11T01:34:18.660Z,1012.47
2018-05-11T01:35:18.662Z,1012.43
2018-05-11T01:36:18.659Z,1012.44
2018-05-11T01:37:18.653Z,1012.45
2018-05-11T01:38:18.652Z,1012.46
2018-05-11T01:39:18.650Z,1012.50
2018-05-11T01:40:18.648Z,1012.51
2018-05-11T01:41:18.655Z,1012.48
2018-05-11T01:42:18.649Z,1012.44
2018-05-11T01:43:18.646Z,1012.48
2018-05-11T01:44:18.645Z,1012.52
2018-05-11T01:45:18.642Z,1012.49
2018-05-11T01:46:18.639Z,1012.48
2018-05-11T01:47:18.641Z,1012.56
2018-05-11T01:48:18.641Z,1012.53
2018-05-11T01:49:18.638Z,1012.55
2018-05-11T01:50:18.637Z,1012.54
2018-05-11T01:51:18.636Z,1012.54
2018-05-11T01:52:18.637Z,1012.51
2018-05-11T01:53:18.634Z,1012.51
2018-05-11T01:54:18.639Z,1012.50
2018-05-11T01:55:18.630Z,1012.50
2018-05-11T01:56:18.637Z,1012.52
2018-05-11T01:57:18.633Z,1012.49
2018-05-11T01:58:18.631Z,1012.50
2018-05-11T01:59:18.627Z,1012.54
2018-05-11T02:00:18.625Z,1012.57
2018-05-11T02:01:18.627Z,1012.61
2018-05-11T02:02:18.627Z,1012.59
2018-05-11T02:03:18.619Z,1012.61
2018-05-11T02:04:18.619Z,1012.66
2018-05-11T02:05:18.620Z,1012.65
2018-05-11T02:06:18.619Z,1012.65
2018-05-11T02:07:18.617Z,1012.66
2018-05-11T02:08:18.614Z,1012.70
2018-05-11T02:09:18.614Z,1012.74
2018-05-11T02:10:18.619Z,1012.71
2018-05-11T02:11:18.607Z,1012.81
2018-05-11T02:12:18.610Z,1012.75
2018-05-11T02:13:18.614Z,1012.79
2018-05-11T02:14:18.610Z,1012.80
2018-05-11T02:15:18.607Z,1012.81
2018-05-11T02:16:18.605Z,1012.82
2018-05-11T02:17:18.605Z,1012.89
2018-05-11T02:18:18.604Z,1012.90
2018-05-11T02:19:18.600Z,1012.92
2018-05-11T02:20:18.599Z,1012.94
2018-05-11T02:21:18.601Z,1012.97
2018-05-11T02:22:18.602Z,1012.97
2018-05-11T02:23:18.596Z,1012.97
2018-05-11T02:24:18.594Z,1012.95
2018-05-11T02:25:18.596Z,1012.95
2018-05-11T02:26:18.594Z,1012.91
2018-05-11T02:27:18.593Z,1012.92
2018-05-11T02:28:18.589Z,1012.95
2018-05-11T02:29:18.594Z,1012.90
2018-05-11T02:30:18.591Z,1012.92
2018-05-11T02:31:18.586Z,1012.92
2018-05-11T02:32:18.591Z,1012.93
2018-05-11T02:33:18.588Z,1012.97
2018-05-11T02:34:18.584Z,1012.99
2018-05-11T02:35:18.583Z,1013.03
2018-05-11T02:36:18.581Z,1013.02
2018-05-11T02:37:18.581Z,1013.01
2018-05-11T02:38:18.582Z,1013.04
2018-05-11T02:39:18.579Z,1013.02
2018-05-11T02:40:18.576Z,1013.01
2018-05-11T02:41:18.579Z,1013.00
2018-05-11T02:42:18.575Z,1013.09
2018-05-11T02:43:18.570Z,1013.09
2018-05-11T02:44:18.574Z,1013.07
2018-05-11T02:45:18.572Z,1013.09
2018-05-11T02:46:18.578Z,1013.10
2018-05-11T02:47:18.566Z,1013.11
2018-05-11T02:48:18.571Z,1013.06
2018-05-11T02:49:18.566Z,1013.09
2018-05-11T02:50:18.566Z,1013.10
2018-05-11T02:51:18.565Z,1013.08
2018-05-11T02:52:18.563Z,1013.11
2018-05-11T02:53:18.562Z,1013.10
2018-05-11T02:54:18.557Z,1013.15
2018-05-11T02:55:18.558Z,1013.15
2018-05-11T02:56:18.557Z,1013.15
2018-05-11T02:57:18.554Z,1013.15
2018-05-11T02:58:18.560Z,1013.18
2018-05-11T02:59:18.553Z,1013.17
2018-05-11T03:00:18.551Z,1013.23
2018-05-11T03:01:18.552Z,1013.22
2018-05-11T03:02:18.550Z,1013.22
2018-05-11T03:03:18.548Z,1013.21
2018-05-11T03:04:18.547Z,1013.26
2018-05-11T03:05:18.550Z,1013.24
2018-05-11T03:06:18.545Z,1013.27
2018-05-11T03:07:18.540Z,1013.28
2018-05-11T03:08:18.543Z,1013.29
2018-05-11T03:09:18.542Z,1013.32
2018-05-11T03:10:18.536Z,1013.30
2018-05-11T03:11:18.541Z,1013.27
2018-05-11T03:12:18.535Z,1013.33
2018-05-11T03:13:18.535Z,1013.34
2018-05-11T03:14:18.533Z,1013.30
2018-05-11T03:15:18.533Z,1013.38
2018-05-11T03:16:18.529Z,1013.38
2018-05-11T03:17:18.530Z,1013.39
2018-05-11T03:18:18.553Z,1013.46
2018-05-11T03:19:18.526Z,1013.49
2018-05-11T03:20:18.523Z,1013.52
2018-05-11T03:21:18.522Z,1013.56
2018-05-11T03:22:18.523Z,1013.53
2018-05-11T03:23:18.518Z,1013.60
2018-05-11T03:24:18.516Z,1013.64
2018-05-11T03:25:18.518Z,1013.63
2018-05-11T03:26:18.516Z,1013.63
2018-05-11T03:27:18.514Z,1013.66
2018-05-11T03:28:18.513Z,1013.67
2018-05-11T03:29:18.510Z,1013.69
2018-05-11T03:30:18.511Z,1013.71
2018-05-11T03:31:18.505Z,1013.67
2018-05-11T03:32:18.507Z,1013.69
2018-05-11T03:33:18.507Z,1013.74
2018-05-11T03:34:18.502Z,1013.73
2018-05-11T03:35:18.500Z,1013.73
2018-05-11T03:36:18.498Z,1013.71
2018-05-11T03:37:18.496Z,1013.75
2018-05-11T03:38:18.499Z,1013.81
2018-05-11T03:39:18.497Z,1013.79
2018-05-11T03:40:18.492Z,1013.79
2018-05-11T03:41:18.491Z,1013.81
2018-05-11T03:42:18.491Z,1013.81
2018-05-11T03:43:18.492Z,1013.80
2018-05-11T03:44:18.485Z,1013.81
2018-05-11T03:45:18.485Z,1013.83
2018-05-11T03:46:18.485Z,1013.85
2018-05-11T03:47:18.483Z,1013.81
2018-05-11T03:48:18.481Z,1013.79
2018-05-11T03:49:18.478Z,1013.82
2018-05-11T03:50:18.482Z,1013.81
2018-05-11T03:51:18.479Z,1013.81
2018-05-11T03:52:18.473Z,1013.89
2018-05-11T03:53:18.473Z,1013.82
2018-05-11T03:54:18.471Z,1013.87
2018-05-11T03:55:18.469Z,1013.87
2018-05-11T03:56:18.469Z,1013.84
2018-05-11T03:57:18.471Z,1013.82
2018-05-11T03:58:18.464Z,1013.81
2018-05-11T03:59:18.462Z,1013.81
2018-05-11T04:00:18.455Z,1013.82
2018-05-11T04:01:18.463Z,1013.83
2018-05-11T04:02:18.457Z,1013.80
2018-05-11T04:03:18.459Z,1013.82
2018-05-11T04:04:18.456Z,1013.85
2018-05-11T04:05:18.451Z,1013.86
2018-05-11T04:06:18.448Z,1013.86
2018-05-11T04:07:18.447Z,1013.87
2018-05-11T04:08:18.445Z,1013.87
2018-05-11T04:09:18.443Z,1013.85
2018-05-11T04:10:18.442Z,1013.86
2018-05-11T04:11:18.438Z,1013.90
2018-05-11T04:12:18.437Z,1013.89
2018-05-11T04:13:18.437Z,1013.87
2018-05-11T04:14:18.435Z,1013.91
2018-05-11T04:15:18.431Z,1013.92
2018-05-11T04:16:18.432Z,1013.93
2018-05-11T04:17:18.428Z,1013.93
2018-05-11T04:18:18.429Z,1013.96
2018-05-11T04:19:18.425Z,1013.96
2018-05-11T04:20:18.425Z,1013.97
2018-05-11T04:21:18.423Z,1013.99
2018-05-11T04:22:18.422Z,1013.94
2018-05-11T04:23:18.420Z,1013.97
2018-05-11T04:24:18.416Z,1013.96
2018-05-11T04:25:18.413Z,1013.98
2018-05-11T04:26:18.413Z,1013.97
2018-05-11T04:27:18.410Z,1013.96
2018-05-11T04:28:18.412Z,1013.99
2018-05-11T04:29:18.406Z,1014.00
2018-05-11T04:30:18.474Z,1013.96
2018-05-11T04:31:18.406Z,1013.98
2018-05-11T04:32:18.401Z,1013.95
2018-05-11T04:33:18.400Z,1013.94
2018-05-11T04:34:18.399Z,1013.95
2018-05-11T04:35:18.397Z,1013.94
2018-05-11T04:36:18.397Z,1013.96
2018-05-11T04:37:18.485Z,1013.97
2018-05-11T04:38:18.392Z,1013.98
2018-05-11T04:39:18.391Z,1013.97
2018-05-11T04:40:18.388Z,1013.98
2018-05-11T04:41:18.397Z,1013.98
2018-05-11T04:42:18.384Z,1014.00
2018-05-11T04:43:18.382Z,1014.00
2018-05-11T04:44:18.380Z,1014.04
2018-05-11T04:45:18.386Z,1014.03
2018-05-11T04:46:18.377Z,1014.05
2018-05-11T04:47:18.375Z,1014.06
2018-05-11T04:48:18.392Z,1014.07
2018-05-11T04:49:18.380Z,1014.05
2018-05-11T04:50:18.370Z,1014.11
2018-05-11T04:51:18.367Z,1014.12
2018-05-11T04:52:18.369Z,1014.09
2018-05-11T04:53:18.364Z,1014.11
2018-05-11T04:54:18.364Z,1014.10
2018-05-11T04:55:18.362Z,1014.15
2018-05-11T04:56:18.358Z,1014.14
2018-05-11T04:57:18.356Z,1014.07
2018-05-11T04:58:18.358Z,1014.10
2018-05-11T04:59:18.354Z,1014.09
2018-05-11T05:00:18.351Z,1014.11
2018-05-11T05:01:18.349Z,1014.10
2018-05-11T05:02:18.349Z,1014.10
2018-05-11T05:03:18.347Z,1014.14
2018-05-11T05:04:18.342Z,1014.14
2018-05-11T05:05:18.344Z,1014.19
2018-05-11T05:06:18.347Z,1014.21
2018-05-11T05:07:18.343Z,1014.25
2018-05-11T05:08:18.337Z,1014.22
2018-05-11T05:09:18.336Z,1014.21
2018-05-11T05:10:18.338Z,1014.22
2018-05-11T05:11:18.335Z,1014.27
2018-05-11T05:12:18.337Z,1014.27
2018-05-11T05:13:18.327Z,1014.24
2018-05-11T05:14:18.326Z,1014.23
2018-05-11T05:15:18.325Z,1014.27
2018-05-11T05:16:18.331Z,1014.25
2018-05-11T05:17:18.322Z,1014.27
2018-05-11T05:18:18.321Z,1014.25
2018-05-11T05:19:18.359Z,1014.25
2018-05-11T05:20:18.318Z,1014.28
2018-05-11T05:21:18.315Z,1014.28
2018-05-11T05:22:18.313Z,1014.32
2018-05-11T05:23:18.309Z,1014.30
2018-05-11T05:24:18.316Z,1014.31
2018-05-11T05:25:18.308Z,1014.40
2018-05-11T05:26:18.307Z,1014.34
2018-05-11T05:27:18.308Z,1014.41
2018-05-11T05:28:18.302Z,1014.40
2018-05-11T05:29:18.300Z,1014.40
2018-05-11T05:30:18.298Z,1014.40
2018-05-11T05:31:18.300Z,1014.41
2018-05-11T05:32:18.299Z,1014.42
2018-05-11T05:33:18.293Z,1014.39
2018-05-11T05:34:18.296Z,1014.41
2018-05-11T05:35:18.291Z,1014.43
2018-05-11T05:36:18.295Z,1014.44
2018-05-11T05:37:18.291Z,1014.46
2018-05-11T05:38:18.286Z,1014.42
2018-05-11T05:39:18.341Z,1014.47
2018-05-11T05:40:18.281Z,1014.49
2018-05-11T05:41:18.285Z,1014.51
2018-05-11T05:42:18.280Z,1014.53
2018-05-11T05:43:18.278Z,1014.52
2018-05-11T05:44:18.276Z,1014.53
2018-05-11T05:45:18.277Z,1014.55
2018-05-11T05:46:18.272Z,1014.53
2018-05-11T05:47:18.281Z,1014.53
2018-05-11T05:48:18.268Z,1014.53
2018-05-11T05:49:18.270Z,1014.53
2018-05-11T05:50:18.267Z,1014.53
2018-05-11T05:51:18.264Z,1014.57
2018-05-11T05:52:18.268Z,1014.53
2018-05-11T05:53:18.261Z,1014.54
2018-05-11T05:54:18.260Z,1014.53
2018-05-11T05:55:18.258Z,1014.54
2018-05-11T05:56:18.258Z,1014.57
2018-05-11T05:57:18.258Z,1014.59
2018-05-11T05:58:18.253Z,1014.57
2018-05-11T05:59:18.252Z,1014.63
2018-05-11T06:00:18.254Z,1014.62
2018-05-11T06:01:18.253Z,1014.63
2018-05-11T06:02:18.246Z,1014.63
2018-05-11T06:03:18.247Z,1014.65
2018-05-11T06:04:18.242Z,1014.61
2018-05-11T06:05:18.241Z,1014.65
2018-05-11T06:06:18.239Z,1014.67
2018-05-11T06:07:18.240Z,1014.72
2018-05-11T06:08:18.335Z,1014.75
2018-05-11T06:09:18.233Z,1014.73
2018-05-11T06:10:18.235Z,1014.76
2018-05-11T06:11:18.231Z,1014.77
2018-05-11T06:12:18.227Z,1014.81
2018-05-11T06:13:18.231Z,1014.84
2018-05-11T06:14:18.227Z,1014.80
2018-05-11T06:15:18.223Z,1014.83
2018-05-11T06:16:18.224Z,1014.80
2018-05-11T06:17:18.222Z,1014.84
2018-05-11T06:18:18.220Z,1014.86
2018-05-11T06:19:18.218Z,1014.87
2018-05-11T06:20:18.221Z,1014.90
2018-05-11T06:21:18.217Z,1014.91
2018-05-11T06:22:18.212Z,1014.94
2018-05-11T06:23:18.214Z,1014.93
2018-05-11T06:24:18.212Z,1014.96
2018-05-11T06:25:18.209Z,1014.95
2018-05-11T06:26:18.211Z,1014.95
2018-05-11T06:27:18.204Z,1014.98
2018-05-11T06:28:18.211Z,1014.96
2018-05-11T06:29:18.204Z,1015.00
2018-05-11T06:30:18.202Z,1014.98
2018-05-11T06:31:18.198Z,1014.98
2018-05-11T06:32:18.200Z,1015.03
2018-05-11T06:33:18.197Z,1015.00
2018-05-11T06:34:18.196Z,1015.05
2018-05-11T06:35:18.192Z,1015.01
2018-05-11T06:36:18.194Z,1015.04
2018-05-11T06:37:18.191Z,1015.05
2018-05-11T06:38:18.186Z,1015.05
2018-05-11T06:39:18.188Z,1015.02
2018-05-11T06:40:18.192Z,1015.04
2018-05-11T06:41:18.186Z,1015.01
2018-05-11T06:42:18.182Z,1015.05
2018-05-11T06:43:18.180Z,1015.02
2018-05-11T06:44:18.184Z,1015.00
2018-05-11T06:45:18.181Z,1015.03
2018-05-11T06:46:18.174Z,1015.02
2018-05-11T06:47:18.178Z,1015.04
2018-05-11T06:48:18.175Z,1015.03
2018-05-11T06:49:18.175Z,1015.01
2018-05-11T06:50:18.172Z,1015.03
2018-05-11T06:51:18.168Z,1015.06
2018-05-11T06:52:18.177Z,1015.05
2018-05-11T06:53:18.170Z,1015.07
2018-05-11T06:54:18.169Z,1015.04
2018-05-11T06:55:18.161Z,1015.03
2018-05-11T06:56:18.167Z,1015.07
2018-05-11T06:57:18.161Z,1015.09
2018-05-11T06:58:18.161Z,1015.12
2018-05-11T06:59:18.163Z,1015.10
2018-05-11T07:00:18.156Z,1015.10
2018-05-11T07:01:18.172Z,1015.10
2018-05-11T07:02:18.162Z,1015.10
2018-05-11T07:03:18.154Z,1015.10
2018-05-11T07:04:18.157Z,1015.11
2018-05-11T07:05:18.155Z,1015.07
2018-05-11T07:06:18.149Z,1015.07
2018-05-11T07:07:18.175Z,1015.08
2018-05-11T07:08:18.145Z,1015.07
2018-05-11T07:09:18.144Z,1015.09
2018-05-11T07:10:18.146Z,1015.09
2018-05-11T07:11:18.140Z,1015.08
2018-05-11T07:12:18.139Z,1015.10
2018-05-11T07:13:18.141Z,1015.09
2018-05-11T07:14:18.138Z,1015.12
2018-05-11T07:15:18.136Z,1015.11
2018-05-11T07:16:18.137Z,1015.12
2018-05-11T07:17:18.134Z,1015.11
2018-05-11T07:18:18.134Z,1015.12
2018-05-11T07:19:18.134Z,1015.16
2018-05-11T07:20:18.132Z,1015.13
2018-05-11T07:21:18.129Z,1015.13
2018-05-11T07:22:18.136Z,1015.19
2018-05-11T07:23:18.125Z,1015.18
2018-05-11T07:24:18.126Z,1015.21
2018-05-11T07:25:18.123Z,1015.16
2018-05-11T07:26:18.123Z,1015.21
2018-05-11T07:27:18.125Z,1015.22
2018-05-11T07:28:18.123Z,1015.29
2018-05-11T07:29:18.126Z,1015.25
2018-05-11T07:30:18.117Z,1015.29
2018-05-11T07:31:18.116Z,1015.30
2018-05-11T07:32:18.118Z,1015.29
2018-05-11T07:33:18.112Z,1015.27
2018-05-11T07:34:18.117Z,1015.31
2018-05-11T07:35:18.114Z,1015.33
2018-05-11T07:36:18.112Z,1015.33
2018-05-11T07:37:18.112Z,1015.33
2018-05-11T07:38:18.110Z,1015.32
2018-05-11T07:39:18.111Z,1015.32
2018-05-11T07:40:18.109Z,1015.34
2018-05-11T07:41:18.109Z,1015.34
2018-05-11T07:42:18.108Z,1015.32
2018-05-11T07:43:18.172Z,1015.25
2018-05-11T07:44:18.106Z,1015.27
2018-05-11T07:45:18.105Z,1015.29
2018-05-11T07:46:18.104Z,1015.30
2018-05-11T07:47:18.103Z,1015.33
2018-05-11T07:48:18.103Z,1015.35
2018-05-11T07:49:18.101Z,1015.34
2018-05-11T07:50:18.102Z,1015.36
2018-05-11T07:51:18.098Z,1015.37
2018-05-11T07:52:18.101Z,1015.36
2018-05-11T07:53:18.097Z,1015.42
2018-05-11T07:54:18.099Z,1015.42
2018-05-11T07:55:18.093Z,1015.47
2018-05-11T07:56:18.095Z,1015.48
2018-05-11T07:57:18.098Z,1015.47
2018-05-11T07:58:18.095Z,1015.47
2018-05-11T07:59:18.096Z,1015.53
2018-05-11T08:00:18.092Z,1015.51
2018-05-11T08:01:18.091Z,1015.54
2018-05-11T08:02:18.094Z,1015.52
2018-05-11T08:03:18.092Z,1015.47
2018-05-11T08:04:18.090Z,1015.51
2018-05-11T08:05:18.088Z,1015.50
2018-05-11T08:06:18.088Z,1015.49
2018-05-11T08:07:18.089Z,1015.48
2018-05-11T08:08:18.088Z,1015.51
2018-05-11T08:09:18.087Z,1015.54
2018-05-11T08:10:18.092Z,1015.52
2018-05-11T08:11:18.083Z,1015.51
2018-05-11T08:12:18.086Z,1015.52
2018-05-11T08:13:18.082Z,1015.52
2018-05-11T08:14:18.105Z,1015.53
2018-05-11T08:15:18.084Z,1015.55
2018-05-11T08:16:18.082Z,1015.52
2018-05-11T08:17:18.084Z,1015.52
2018-05-11T08:18:18.085Z,1015.56
2018-05-11T08:19:18.084Z,1015.53
2018-05-11T08:20:18.084Z,1015.54
2018-05-11T08:21:18.103Z,1015.52
2018-05-11T08:22:18.083Z,1015.53
2018-05-11T08:23:18.080Z,1015.55
2018-05-11T08:24:18.080Z,1015.53
2018-05-11T08:25:18.079Z,1015.52
2018-05-11T08:26:18.081Z,1015.55
2018-05-11T08:27:18.077Z,1015.54
2018-05-11T08:28:18.080Z,1015.54
2018-05-11T08:29:18.078Z,1015.51
2018-05-11T08:30:18.077Z,1015.48
2018-05-11T08:31:18.077Z,1015.51
2018-05-11T08:32:18.078Z,1015.51
2018-05-11T08:33:18.097Z,1015.51
2018-05-11T08:34:18.082Z,1015.53
2018-05-11T08:35:18.078Z,1015.54
2018-05-11T08:36:18.076Z,1015.58
2018-05-11T08:37:18.077Z,1015.55
2018-05-11T08:38:18.081Z,1015.57
2018-05-11T08:39:18.075Z,1015.56
2018-05-11T08:40:18.075Z,1015.58
2018-05-11T08:41:18.075Z,1015.57
2018-05-11T08:42:18.133Z,1015.59
2018-05-11T08:43:18.074Z,1015.61
2018-05-11T08:44:18.076Z,1015.60
2018-05-11T08:45:18.074Z,1015.59
2018-05-11T08:46:18.127Z,1015.61
2018-05-11T08:47:18.074Z,1015.59
2018-05-11T08:48:18.073Z,1015.61
2018-05-11T08:49:18.075Z,1015.62
2018-05-11T08:50:18.077Z,1015.60
2018-05-11T08:51:18.073Z,1015.57
2018-05-11T08:52:18.074Z,1015.58
2018-05-11T08:53:18.074Z,1015.62
2018-05-11T08:54:18.073Z,1015.57
2018-05-11T08:55:18.072Z,1015.57
2018-05-11T08:56:18.074Z,1015.53
2018-05-11T08:57:18.109Z,1015.58
2018-05-11T08:58:18.071Z,1015.55
2018-05-11T08:59:18.072Z,1015.57
2018-05-11T09:00:18.072Z,1015.61
2018-05-11T09:01:18.071Z,1015.61
2018-05-11T09:02:18.074Z,1015.61
2018-05-11T09:03:18.072Z,1015.62
2018-05-11T09:04:18.071Z,1015.65
2018-05-11T09:05:18.071Z,1015.70
2018-05-11T09:06:18.072Z,1015.71
2018-05-11T09:07:18.072Z,1015.71
2018-05-11T09:08:18.093Z,1015.72
2018-05-11T09:09:18.070Z,1015.77
2018-05-11T09:10:18.075Z,1015.74
2018-05-11T09:11:18.073Z,1015.76
2018-05-11T09:12:18.071Z,1015.80
2018-05-11T09:13:18.087Z,1015.77
2018-05-11T09:14:18.072Z,1015.77
2018-05-11T09:15:18.071Z,1015.79
2018-05-11T09:16:18.073Z,1015.78
2018-05-11T09:17:18.074Z,1015.81
2018-05-11T09:18:18.073Z,1015.80
2018-05-11T09:19:18.072Z,1015.81
2018-05-11T09:20:18.073Z,1015.84
2018-05-11T09:21:18.078Z,1015.82
2018-05-11T09:22:18.073Z,1015.85
2018-05-11T09:23:18.072Z,1015.82
2018-05-11T09:24:18.075Z,1015.84
2018-05-11T09:25:18.074Z,1015.83
2018-05-11T09:26:18.072Z,1015.85
2018-05-11T09:27:18.075Z,1015.85
2018-05-11T09:28:18.075Z,1015.85
2018-05-11T09:29:18.074Z,1015.83
2018-05-11T09:30:18.076Z,1015.87
2018-05-11T09:31:18.077Z,1015.85
2018-05-11T09:32:18.076Z,1015.84
2018-05-11T09:33:18.088Z,1015.83
2018-05-11T09:34:18.077Z,1015.87
2018-05-11T09:35:18.078Z,1015.87
2018-05-11T09:36:18.077Z,1015.85
2018-05-11T09:37:18.082Z,1015.88
2018-05-11T09:38:18.078Z,1015.87
2018-05-11T09:39:18.081Z,1015.88
2018-05-11T09:40:18.087Z,1015.88
2018-05-11T09:41:18.082Z,1015.88
2018-05-11T09:42:18.079Z,1015.91
2018-05-11T09:43:18.080Z,1015.90
2018-05-11T09:44:18.081Z,1015.91
2018-05-11T09:45:18.081Z,1015.97
2018-05-11T09:46:18.080Z,1015.96
2018-05-11T09:47:18.083Z,1016.00
2018-05-11T09:48:18.081Z,1015.98
2018-05-11T09:49:18.088Z,1016.04
2018-05-11T09:50:18.085Z,1016.06
2018-05-11T09:51:18.082Z,1016.05
2018-05-11T09:52:18.084Z,1016.10
2018-05-11T09:53:18.084Z,1016.07
2018-05-11T09:54:18.086Z,1016.10
2018-05-11T09:55:18.086Z,1016.08
2018-05-11T09:56:18.083Z,1016.11
2018-05-11T09:57:18.088Z,1016.10
2018-05-11T09:58:18.092Z,1016.10
2018-05-11T09:59:18.091Z,1016.12
2018-05-11T10:00:18.089Z,1016.11
2018-05-11T10:01:18.089Z,1016.09
2018-05-11T10:02:18.092Z,1016.12
2018-05-11T10:03:18.092Z,1016.09
2018-05-11T10:04:18.095Z,1016.10
2018-05-11T10:05:18.095Z,1016.05
2018-05-11T10:06:18.096Z,1016.05
2018-05-11T10:07:18.096Z,1016.08
2018-05-11T10:08:18.104Z,1016.10
2018-05-11T10:09:18.099Z,1016.09
2018-05-11T10:10:18.100Z,1016.10
2018-05-11T10:11:18.100Z,1016.09
2018-05-11T10:12:18.104Z,1016.08
2018-05-11T10:13:18.106Z,1016.04
2018-05-11T10:14:18.111Z,1016.02
2018-05-11T10:15:18.103Z,1016.02
2018-05-11T10:16:18.107Z,1016.04
2018-05-11T10:17:18.107Z,1016.02
2018-05-11T10:18:18.120Z,1016.02
2018-05-11T10:19:18.114Z,1016.03
2018-05-11T10:20:18.109Z,1016.02
2018-05-11T10:21:18.118Z,1016.05
2018-05-11T10:22:18.118Z,1016.08
2018-05-11T10:23:18.116Z,1016.08
2018-05-11T10:24:18.116Z,1016.03
2018-05-11T10:25:18.118Z,1016.06
2018-05-11T10:26:18.120Z,1016.04
2018-05-11T10:27:18.118Z,1016.04
2018-05-11T10:28:18.126Z,1016.05
2018-05-11T10:29:18.124Z,1016.06
2018-05-11T10:30:18.123Z,1016.08
2018-05-11T10:31:18.127Z,1016.05
2018-05-11T10:32:18.125Z,1016.01
2018-05-11T10:33:18.129Z,1016.03
2018-05-11T10:34:18.130Z,1016.07
2018-05-11T10:35:18.126Z,1016.07
2018-05-11T10:36:18.128Z,1016.04
2018-05-11T10:37:18.129Z,1016.06
2018-05-11T10:38:18.135Z,1016.07
2018-05-11T10:39:18.135Z,1016.03
2018-05-11T10:40:18.131Z,1016.05
2018-05-11T10:41:18.135Z,1016.09
2018-05-11T10:42:18.135Z,1016.09
2018-05-11T10:43:18.138Z,1016.10
2018-05-11T10:44:18.135Z,1016.09
2018-05-11T10:45:18.136Z,1016.10
2018-05-11T10:46:18.139Z,1016.10
2018-05-11T10:47:18.138Z,1016.15
2018-05-11T10:48:18.139Z,1016.11
2018-05-11T10:49:18.144Z,1016.10
2018-05-11T10:50:18.144Z,1016.09
2018-05-11T10:51:18.142Z,1016.11
2018-05-11T10:52:18.143Z,1016.11
2018-05-11T10:53:18.145Z,1016.10
2018-05-11T10:54:18.145Z,1016.14
2018-05-11T10:55:18.146Z,1016.13
2018-05-11T10:56:18.144Z,1016.14
2018-05-11T10:57:18.150Z,1016.21
2018-05-11T10:58:18.150Z,1016.20
2018-05-11T10:59:18.151Z,1016.20
2018-05-11T11:00:18.152Z,1016.21
2018-05-11T11:01:18.152Z,1016.23
2018-05-11T11:02:18.250Z,1016.22
2018-05-11T11:03:18.153Z,1016.20
2018-05-11T11:04:18.154Z,1016.27
2018-05-11T11:05:18.163Z,1016.25
2018-05-11T11:06:18.156Z,1016.25
2018-05-11T11:07:18.166Z,1016.25
2018-05-11T11:08:18.158Z,1016.30
2018-05-11T11:09:18.159Z,1016.30
2018-05-11T11:10:18.161Z,1016.29
2018-05-11T11:11:18.165Z,1016.32
2018-05-11T11:12:18.164Z,1016.30
2018-05-11T11:13:18.164Z,1016.33
2018-05-11T11:14:18.165Z,1016.30
2018-05-11T11:15:18.165Z,1016.30
2018-05-11T11:16:18.173Z,1016.28
2018-05-11T11:17:18.172Z,1016.29
2018-05-11T11:18:18.169Z,1016.28
2018-05-11T11:19:18.171Z,1016.24
2018-05-11T11:20:18.170Z,1016.26
2018-05-11T11:21:18.171Z,1016.25
2018-05-11T11:22:18.175Z,1016.23
2018-05-11T11:23:18.172Z,1016.21
2018-05-11T11:24:18.174Z,1016.20
2018-05-11T11:25:18.176Z,1016.17
2018-05-11T11:26:18.177Z,1016.17
2018-05-11T11:27:18.181Z,1016.15
2018-05-11T11:28:18.179Z,1016.20
2018-05-11T11:29:18.182Z,1016.18
2018-05-11T11:30:18.264Z,1016.19
2018-05-11T11:31:18.181Z,1016.15
2018-05-11T11:32:18.182Z,1016.19
2018-05-11T11:33:18.184Z,1016.15
2018-05-11T11:34:18.257Z,1016.16
2018-05-11T11:35:18.190Z,1016.16
2018-05-11T11:36:18.187Z,1016.15
2018-05-11T11:37:18.192Z,1016.16
2018-05-11T11:38:18.193Z,1016.13
2018-05-11T11:39:18.195Z,1016.15
2018-05-11T11:40:18.193Z,1016.15
2018-05-11T11:41:18.193Z,1016.14
2018-05-11T11:42:18.284Z,1016.17
2018-05-11T11:43:18.198Z,1016.15
2018-05-11T11:44:18.206Z,1016.15
2018-05-11T11:45:18.201Z,1016.18
2018-05-11T11:46:18.201Z,1016.14
2018-05-11T11:47:18.288Z,1016.17
2018-05-11T11:48:18.203Z,1016.16
2018-05-11T11:49:18.203Z,1016.16
2018-05-11T11:50:18.205Z,1016.17
2018-05-11T11:51:18.208Z,1016.18
2018-05-11T11:52:18.210Z,1016.18
2018-05-11T11:53:18.211Z,1016.17
2018-05-11T11:54:18.210Z,1016.15
2018-05-11T11:55:18.211Z,1016.16
2018-05-11T11:56:18.270Z,1016.14
2018-05-11T11:57:18.212Z,1016.14
2018-05-11T11:58:18.215Z,1016.12
2018-05-11T11:59:18.214Z,1016.11
2018-05-11T12:00:18.214Z,1016.10
2018-05-11T12:01:18.218Z,1016.10
2018-05-11T12:02:18.219Z,1016.06
2018-05-11T12:03:18.220Z,1016.03
2018-05-11T12:04:18.219Z,1016.03
2018-05-11T12:05:18.223Z,1016.05